Time;durP1;ratioP1;P1;durP2;ratioP2;P2;SDS_P1;SDS_P2;PMS_P1;PMS_P2;Temp;Humidity;BMP_temperature;BMP_pressure;BME280_temperature;BME280_humidity;BME280_pressure;Samples;Min_cycle;Max_cycle;Signal;HPM_P1;HPM_P2
2022/01/19 00:00:24;;;;;;;18.10;8.63;;;;;;;-1.02;100.00;102041.78;5071899;28;20493;-72
2022/01/19 00:02:53;;;;;;;24.80;8.52;;;;;;;-1.15;100.00;102047.69;5072704;28;20044;-71
2022/01/19 00:05:22;;;;;;;19.50;7.93;;;;;;;-1.24;100.00;102043.19;5072319;28;20504;-71
2022/01/19 00:07:51;;;;;;;22.65;9.20;;;;;;;-1.28;100.00;102050.94;5072379;28;20056;-71
2022/01/19 00:10:26;;;;;;;25.88;9.30;;;;;;;-1.13;100.00;102055.56;5074016;28;20098;-72
2022/01/19 00:12:56;;;;;;;19.80;8.27;;;;;;;-1.11;100.00;102059.09;5076449;28;20048;-70
2022/01/19 00:15:26;;;;;;;22.83;8.43;;;;;;;-1.07;100.00;102055.66;5076027;28;20523;-70
2022/01/19 00:17:58;;;;;;;21.83;7.40;;;;;;;-0.98;100.00;102061.91;5076223;28;20481;-71
2022/01/19 00:20:28;;;;;;;20.73;8.77;;;;;;;-0.99;100.00;102059.28;5075987;28;20048;-72
2022/01/19 00:22:57;;;;;;;23.15;8.32;;;;;;;-1.14;100.00;102054.69;5076248;28;20068;-73
2022/01/19 00:25:25;;;;;;;27.92;8.73;;;;;;;-1.20;100.00;102050.22;5075820;28;20532;-70
2022/01/19 00:27:54;;;;;;;23.80;9.05;;;;;;;-1.13;100.00;102060.81;5075847;28;20507;-71
2022/01/19 00:30:22;;;;;;;25.13;8.68;;;;;;;-1.11;100.00;102074.81;5075647;28;20440;-70
2022/01/19 00:32:51;;;;;;;25.48;9.23;;;;;;;-1.16;100.00;102070.38;5076004;28;20037;-70
2022/01/19 00:35:20;;;;;;;28.30;8.45;;;;;;;-1.28;100.00;102071.91;5075736;28;20056;-72
2022/01/19 00:37:48;;;;;;;26.38;9.27;;;;;;;-1.26;100.00;102075.41;5075474;28;20555;-71
2022/01/19 00:40:19;;;;;;;24.90;7.95;;;;;;;-1.36;100.00;102074.38;5075854;28;20105;-71
2022/01/19 00:42:47;;;;;;;21.05;8.05;;;;;;;-1.29;100.00;102071.00;5075592;28;20046;-72
2022/01/19 00:45:18;;;;;;;18.98;8.07;;;;;;;-1.13;100.00;102081.75;5075531;28;20041;-73
2022/01/19 00:47:47;;;;;;;22.25;8.40;;;;;;;-1.21;100.00;102079.00;5075800;28;20044;-72
2022/01/19 00:50:24;;;;;;;18.98;7.97;;;;;;;-1.22;100.00;102075.50;5075221;28;20482;-71
2022/01/19 00:52:52;;;;;;;21.42;7.70;;;;;;;-1.25;100.00;102077.22;5091587;28;20102;-72
2022/01/19 00:55:23;;;;;;;23.30;8.63;;;;;;;-1.30;100.00;102069.25;5075357;28;20477;-72
2022/01/19 00:57:52;;;;;;;24.75;8.88;;;;;;;-1.47;100.00;102068.06;5075634;28;20049;-71
2022/01/19 01:00:22;;;;;;;23.05;8.55;;;;;;;-1.49;100.00;102067.16;5074812;28;20040;-71
2022/01/19 01:02:51;;;;;;;22.13;8.68;;;;;;;-1.38;100.00;102057.75;5075614;28;20098;-72
2022/01/19 01:05:19;;;;;;;25.02;8.63;;;;;;;-1.36;100.00;102053.44;5074833;28;20508;-73
2022/01/19 01:07:49;;;;;;;24.35;9.20;;;;;;;-1.57;100.00;102063.53;5075510;28;20453;-72
2022/01/19 01:10:20;;;;;;;23.10;8.50;;;;;;;-1.65;100.00;102049.41;5075225;28;20040;-76
2022/01/19 01:12:51;;;;;;;27.75;8.85;;;;;;;-1.76;100.00;102041.38;5076009;28;20428;-71
2022/01/19 01:15:46;;;;;;;24.98;8.77;;;;;;;-1.86;100.00;102049.91;5075092;28;20456;-71
2022/01/19 01:18:20;;;;;;;29.42;8.82;;;;;;;-1.89;100.00;102044.63;5075111;28;20045;-71
2022/01/19 01:20:52;;;;;;;21.02;8.40;;;;;;;-1.89;100.00;102034.16;5074689;28;20048;-71
2022/01/19 01:23:23;;;;;;;20.88;8.48;;;;;;;-1.97;100.00;102036.63;5056693;28;20072;-72
2022/01/19 01:25:53;;;;;;;27.27;8.93;;;;;;;-1.97;100.00;102036.63;5074855;28;20040;-72
2022/01/19 01:28:21;;;;;;;21.27;8.60;;;;;;;-1.91;100.00;102026.28;5074393;28;20115;-72
2022/01/19 01:30:52;;;;;;;23.23;8.18;;;;;;;-1.83;100.00;102019.47;5075126;28;20048;-72
2022/01/19 01:33:20;;;;;;;19.98;8.25;;;;;;;-1.85;100.00;102004.56;5074577;28;20048;-73
2022/01/19 01:35:48;;;;;;;27.65;9.27;;;;;;;-2.04;100.00;101987.66;5074605;28;20127;-72
2022/01/19 01:38:17;;;;;;;22.77;9.10;;;;;;;-2.13;100.00;101982.25;5074913;28;20048;-72
2022/01/19 01:41:08;;;;;;;23.35;9.00;;;;;;;-2.19;100.00;101977.81;5074541;28;20040;-72
2022/01/19 01:43:37;;;;;;;24.98;8.43;;;;;;;-2.08;100.00;101983.25;5074160;28;20036;-71
2022/01/19 01:46:13;;;;;;;18.80;8.80;;;;;;;-2.13;100.00;101984.88;5074295;28;20103;-72
2022/01/19 01:48:45;;;;;;;28.15;9.98;;;;;;;-2.28;100.00;101997.66;5074155;28;20486;-72
2022/01/19 01:54:01;;;;;;;25.10;8.80;;;;;;;-2.32;100.00;101989.75;5074225;28;20123;-71
2022/01/19 01:56:32;;;;;;;24.92;9.00;;;;;;;-2.38;100.00;101981.78;5074080;28;20047;-72
2022/01/19 01:59:01;;;;;;;24.15;8.80;;;;;;;-2.38;100.00;101980.91;5074419;28;20041;-72
2022/01/19 02:01:29;;;;;;;29.50;9.70;;;;;;;-2.37;100.00;101991.38;5073584;28;20076;-71
2022/01/19 02:03:59;;;;;;;21.98;9.43;;;;;;;-2.27;100.00;101988.97;5074277;28;20473;-72
2022/01/19 02:06:41;;;;;;;24.90;9.25;;;;;;;-2.32;100.00;101974.09;5073974;28;20047;-72
2022/01/19 02:09:13;;;;;;;24.65;9.00;;;;;;;-2.26;100.00;101959.34;5073902;28;20044;-71
2022/01/19 02:23:14;;;;;;;18.35;8.27;;;;;;;-2.32;100.00;101966.25;5073647;28;20448;-73
2022/01/19 02:25:44;;;;;;;24.17;8.88;;;;;;;-2.37;100.00;101957.41;5073657;28;20439;-71
2022/01/19 02:36:38;;;;;;;27.23;8.52;;;;;;;-2.17;100.00;101960.41;5073148;28;20044;-76
2022/01/19 02:41:56;;;;;;;21.55;8.95;;;;;;;-2.01;100.00;101961.59;5073694;28;20042;-74
2022/01/19 02:46:30;;;;;;;22.73;8.93;;;;;;;-2.10;100.00;101954.44;5073135;28;20043;-76
2022/01/19 02:50:08;;;;;;;26.67;9.20;;;;;;;-2.08;100.00;101946.63;5073508;28;20541;-71
2022/01/19 02:52:38;;;;;;;21.05;8.50;;;;;;;-2.16;100.00;101943.00;5055316;28;20405;-70
2022/01/19 02:55:07;;;;;;;27.60;9.27;;;;;;;-2.14;100.00;101933.44;5073537;28;20040;-71
2022/01/19 02:57:36;;;;;;;21.33;8.60;;;;;;;-2.23;100.00;101933.25;5072977;28;20128;-72
2022/01/19 03:08:47;;;;;;;22.98;8.80;;;;;;;-1.76;100.00;101927.13;5073394;28;20130;-75
2022/01/19 03:11:17;;;;;;;24.50;9.07;;;;;;;-1.73;100.00;101926.34;5073022;28;20040;-72
2022/01/19 03:13:47;;;;;;;22.30;9.43;;;;;;;-1.93;100.00;101932.94;5072909;28;20071;-72
2022/01/19 03:16:18;;;;;;;30.10;9.57;;;;;;;-2.23;100.00;101933.25;5073189;28;20041;-72
2022/01/19 03:18:46;;;;;;;19.65;8.45;;;;;;;-2.26;100.00;101928.88;5072735;28;20044;-72
2022/01/19 03:21:17;;;;;;;32.05;9.75;;;;;;;-2.09;100.00;101921.34;5072885;28;20041;-69
2022/01/19 03:23:47;;;;;;;19.52;9.38;;;;;;;-2.17;100.00;101910.72;5072887;28;20091;-68
2022/01/19 03:26:15;;;;;;;21.58;9.15;;;;;;;-2.16;100.00;101909.00;5073103;28;20123;-70
2022/01/19 03:28:43;;;;;;;22.33;9.52;;;;;;;-2.16;100.00;101914.22;5072407;28;20135;-70
2022/01/19 03:31:12;;;;;;;25.17;8.50;;;;;;;-2.23;100.00;101915.84;5073119;28;20064;-69
2022/01/19 03:33:41;;;;;;;23.67;8.95;;;;;;;-2.27;100.00;101918.38;5077028;28;20044;-69
2022/01/19 03:36:09;;;;;;;25.20;8.27;;;;;;;-2.16;100.00;101914.22;5074691;28;20385;-69
2022/01/19 03:38:37;;;;;;;25.27;9.50;;;;;;;-2.25;100.00;101919.28;5072666;28;20056;-68
2022/01/19 03:41:08;;;;;;;22.90;9.32;;;;;;;-2.37;100.00;101926.03;5072606;28;20123;-69
2022/01/19 03:43:36;;;;;;;26.85;10.15;;;;;;;-2.28;100.00;101927.97;5072515;28;20102;-69
2022/01/19 03:46:13;;;;;;;24.70;9.07;;;;;;;-2.36;100.00;101926.94;5078018;28;20439;-69
2022/01/19 03:48:53;;;;;;;24.52;9.52;;;;;;;-2.42;100.00;101922.44;5076261;28;20068;-68
2022/01/19 03:51:21;;;;;;;22.80;8.82;;;;;;;-2.39;100.00;101925.16;5076817;28;20041;-69
2022/01/19 03:53:50;;;;;;;24.65;9.25;;;;;;;-2.36;100.00;101921.69;5076483;28;20106;-68
2022/01/19 03:56:20;;;;;;;32.10;9.52;;;;;;;-2.58;100.00;101920.41;5058779;28;20493;-69
2022/01/19 03:58:48;;;;;;;30.35;9.82;;;;;;;-2.48;100.00;101922.34;5076736;28;20559;-69
2022/01/19 04:01:17;;;;;;;23.35;9.52;;;;;;;-2.55;100.00;101910.00;5076293;28;20045;-68
2022/01/19 04:06:53;;;;;;;25.20;9.30;;;;;;;-2.72;100.00;101921.84;5076202;28;20041;-70
2022/01/19 04:09:22;;;;;;;26.17;9.70;;;;;;;-2.46;100.00;101927.59;5076115;28;20068;-71
2022/01/19 04:11:52;;;;;;;28.52;9.68;;;;;;;-2.43;100.00;101928.53;5076068;28;20045;-71
2022/01/19 04:14:24;;;;;;;28.02;9.55;;;;;;;-2.41;100.00;101929.47;5076035;28;20054;-71
2022/01/19 04:16:56;;;;;;;30.13;10.23;;;;;;;-2.41;100.00;101923.38;5076022;28;20041;-70
2022/01/19 04:19:30;;;;;;;27.45;10.32;;;;;;;-2.30;100.00;101927.06;5075963;28;20036;-71
2022/01/19 04:22:02;;;;;;;24.73;9.18;;;;;;;-2.38;100.00;101921.69;5076236;28;20045;-72
2022/01/19 04:24:31;;;;;;;27.42;10.23;;;;;;;-2.45;100.00;101911.94;5075808;28;20478;-73
2022/01/19 04:29:54;;;;;;;25.85;11.07;;;;;;;-2.84;100.00;101913.75;5075344;28;20049;-72
2022/01/19 04:32:27;;;;;;;28.30;11.85;;;;;;;-2.98;100.00;101916.09;5076337;28;20076;-72
2022/01/19 04:34:56;;;;;;;25.60;10.90;;;;;;;-3.03;100.00;101918.59;5075785;28;20049;-72
2022/01/19 05:05:26;;;;;;;27.63;13.68;;;;;;;-3.62;100.00;101883.31;5054592;28;20464;-71
2022/01/19 05:07:59;;;;;;;36.25;13.15;;;;;;;-3.60;100.00;101882.50;5075143;28;20500;-71
2022/01/19 05:13:32;;;;;;;32.30;13.73;;;;;;;-3.64;100.00;101878.06;5075117;28;20055;-73
2022/01/19 05:16:02;;;;;;;33.63;14.90;;;;;;;-3.61;100.00;101872.91;5075496;28;20058;-73
2022/01/19 05:18:31;;;;;;;34.45;13.77;;;;;;;-3.60;100.00;101869.47;5075125;28;20094;-69
2022/01/19 05:20:59;;;;;;;37.83;17.10;;;;;;;-3.65;100.00;101884.13;5074821;28;20492;-70
2022/01/19 05:23:27;;;;;;;41.88;16.80;;;;;;;-3.68;100.00;101891.00;5075285;28;20435;-70
2022/01/19 05:25:56;;;;;;;31.52;14.13;;;;;;;-3.72;100.00;101878.72;5074648;28;20052;-70
2022/01/19 05:28:24;;;;;;;34.72;12.63;;;;;;;-3.67;100.00;101880.59;5074536;28;20083;-69
2022/01/19 05:30:52;;;;;;;33.75;12.45;;;;;;;-3.65;100.00;101870.22;5074516;28;20440;-72
2022/01/19 05:33:22;;;;;;;31.50;13.00;;;;;;;-3.49;100.00;101874.91;5074508;28;20048;-72
2022/01/19 05:35:51;;;;;;;31.20;12.07;;;;;;;-3.55;100.00;101880.03;5074653;28;20047;-71
2022/01/19 05:38:20;;;;;;;28.27;12.20;;;;;;;-3.67;100.00;101888.41;5074811;28;20135;-71
2022/01/19 05:40:48;;;;;;;30.10;12.52;;;;;;;-3.67;100.00;101877.97;5074183;28;20040;-72
2022/01/19 05:43:19;;;;;;;24.58;11.90;;;;;;;-3.47;100.00;101871.53;5074712;28;20111;-72
2022/01/19 05:45:47;;;;;;;30.38;12.98;;;;;;;-3.24;100.00;101878.97;5073894;28;20075;-71
2022/01/19 05:48:15;;;;;;;26.50;13.20;;;;;;;-3.39;100.00;101876.00;5074489;28;20044;-71
2022/01/19 05:50:45;;;;;;;27.45;12.82;;;;;;;-3.63;100.00;101884.16;5074299;28;20041;-71
2022/01/19 05:53:15;;;;;;;25.75;12.40;;;;;;;-3.80;100.00;101870.72;5074333;28;20033;-72
2022/01/19 05:55:43;;;;;;;33.78;15.10;;;;;;;-3.42;100.00;101871.63;5074143;28;20044;-72
2022/01/19 05:58:12;;;;;;;34.47;13.82;;;;;;;-3.38;100.00;101873.44;5073966;28;20131;-71
2022/01/19 06:00:40;;;;;;;30.70;14.00;;;;;;;-3.48;100.00;101872.34;5073613;28;20044;-71
2022/01/19 06:03:09;;;;;;;27.60;13.98;;;;;;;-3.58;100.00;101883.41;5074183;28;20056;-69
2022/01/19 06:05:37;;;;;;;30.88;14.30;;;;;;;-3.51;100.00;101880.09;5073900;28;20048;-77
2022/01/19 06:08:17;;;;;;;32.45;14.40;;;;;;;-3.58;100.00;101883.41;5073316;28;20405;-75
2022/01/19 06:10:45;;;;;;;31.73;14.55;;;;;;;-3.58;100.00;101886.03;5073419;28;20496;-74
2022/01/19 06:13:15;;;;;;;33.38;14.50;;;;;;;-3.44;100.00;101896.78;5073944;28;20119;-72
2022/01/19 06:15:47;;;;;;;33.72;15.45;;;;;;;-3.36;100.00;101891.75;5073551;28;20036;-70
2022/01/19 06:18:17;;;;;;;37.20;15.55;;;;;;;-3.38;100.00;101883.00;5073958;28;20112;-71
2022/01/19 06:20:46;;;;;;;29.63;14.50;;;;;;;-3.36;100.00;101884.81;5073717;28;20045;-71
2022/01/19 06:23:18;;;;;;;34.88;13.48;;;;;;;-3.40;100.00;101885.56;5073828;28;20048;-71
2022/01/19 06:25:46;;;;;;;32.25;14.98;;;;;;;-3.54;100.00;101885.25;5073377;28;20044;-70
2022/01/19 06:28:15;;;;;;;33.00;15.73;;;;;;;-3.67;100.00;101877.97;5073599;28;20119;-71
2022/01/19 06:30:43;;;;;;;39.33;15.52;;;;;;;-3.61;100.00;101883.34;5073481;28;20389;-71
2022/01/19 06:33:11;;;;;;;38.33;16.77;;;;;;;-3.61;100.00;101885.06;5073276;28;20041;-71
2022/01/19 06:35:40;;;;;;;35.95;15.77;;;;;;;-3.63;100.00;101885.06;5073583;28;20046;-74
2022/01/19 06:38:08;;;;;;;41.70;16.00;;;;;;;-3.77;100.00;101886.44;5073585;28;20065;-71
2022/01/19 06:40:39;;;;;;;39.30;15.98;;;;;;;-3.84;100.00;101882.81;5073191;28;20449;-71
2022/01/19 06:43:07;;;;;;;33.30;16.35;;;;;;;-3.83;100.00;101875.88;5073131;28;20485;-70
2022/01/19 06:45:35;;;;;;;42.63;16.88;;;;;;;-3.68;100.00;101872.72;5073147;28;20044;-71
2022/01/19 06:48:04;;;;;;;38.97;16.48;;;;;;;-3.56;100.00;101881.75;5072827;28;20082;-69
2022/01/19 06:50:33;;;;;;;38.05;15.55;;;;;;;-3.63;100.00;101878.94;5073308;28;20048;-72
2022/01/19 06:53:01;;;;;;;39.22;15.55;;;;;;;-3.76;100.00;101878.66;5072944;28;20044;-73
2022/01/19 06:55:30;;;;;;;34.35;15.98;;;;;;;-3.86;100.00;101873.16;5073342;28;20098;-72
2022/01/19 06:57:59;;;;;;;36.95;16.40;;;;;;;-3.80;100.00;101865.50;5072615;28;20044;-71
2022/01/19 07:00:28;;;;;;;43.10;17.35;;;;;;;-3.84;100.00;101863.69;5069060;28;20123;-74
2022/01/19 07:02:56;;;;;;;38.28;16.38;;;;;;;-3.88;100.00;101869.66;5070588;28;20131;-76
2022/01/19 07:05:25;;;;;;;29.15;14.50;;;;;;;-3.92;100.00;101866.09;5071709;28;20041;-72
2022/01/19 07:07:56;;;;;;;33.22;15.57;;;;;;;-3.89;100.00;101866.16;5072042;28;20124;-70
2022/01/19 07:10:31;;;;;;;35.80;15.57;;;;;;;-3.83;100.00;101860.22;5072767;28;20040;-72
2022/01/19 07:13:01;;;;;;;37.70;15.15;;;;;;;-3.82;100.00;101862.88;5072587;28;20033;-73
2022/01/19 07:15:30;;;;;;;38.45;17.05;;;;;;;-3.66;100.00;101869.34;5072382;28;20052;-74
2022/01/19 07:17:59;;;;;;;36.45;17.27;;;;;;;-3.69;100.00;101869.25;5074837;28;20041;-72
2022/01/19 07:20:27;;;;;;;38.80;18.02;;;;;;;-3.63;100.00;101863.31;5072453;28;20449;-73
2022/01/19 07:22:57;;;;;;;45.53;18.95;;;;;;;-3.64;100.00;101862.44;5072217;28;20075;-73
2022/01/19 07:25:25;;;;;;;43.00;17.27;;;;;;;-3.63;100.00;101845.94;5072359;28;20090;-72
2022/01/19 07:27:53;;;;;;;42.40;18.40;;;;;;;-3.61;100.00;101852.06;5071895;28;20032;-71
2022/01/19 07:30:24;;;;;;;41.60;18.10;;;;;;;-3.51;100.00;101858.34;5071979;28;20115;-73
2022/01/19 07:32:52;;;;;;;47.92;17.75;;;;;;;-3.48;100.00;101848.88;5072139;28;20049;-75
2022/01/19 07:35:21;;;;;;;39.95;16.83;;;;;;;-3.42;100.00;101844.66;5054528;28;20052;-73
2022/01/19 07:37:49;;;;;;;41.65;17.40;;;;;;;-3.41;100.00;101847.28;5072113;28;20049;-76
2022/01/19 07:40:17;;;;;;;37.85;17.35;;;;;;;-3.30;100.00;101842.28;5071984;28;20048;-74
2022/01/19 07:42:46;;;;;;;46.50;19.00;;;;;;;-3.11;100.00;101843.56;5072261;28;20402;-74
2022/01/19 07:45:15;;;;;;;40.15;17.05;;;;;;;-3.06;100.00;101839.34;5071799;28;20087;-73
2022/01/19 07:47:45;;;;;;;38.60;14.75;;;;;;;-2.66;100.00;101828.81;5071931;28;20155;-69
2022/01/19 07:50:14;;;;;;;33.90;15.95;;;;;;;-2.69;100.00;101820.06;5071645;28;20047;-68
2022/01/19 07:52:43;;;;;;;43.17;16.45;;;;;;;-2.48;100.00;101824.78;5072182;28;20627;-70
2022/01/19 07:55:11;;;;;;;34.08;16.17;;;;;;;-2.38;100.00;101824.09;5071961;28;20045;-69
2022/01/19 07:57:41;;;;;;;44.40;17.13;;;;;;;-2.34;100.00;101828.50;5069811;28;20417;-70
2022/01/19 08:00:09;;;;;;;37.08;16.67;;;;;;;-2.34;100.00;101824.16;5071381;28;20445;-69
2022/01/19 08:02:40;;;;;;;34.45;14.55;;;;;;;-2.20;100.00;101818.31;5071889;28;20036;-70
2022/01/19 08:05:10;;;;;;;37.03;17.38;;;;;;;-2.16;100.00;101820.13;5071991;28;20037;-70
2022/01/19 08:07:39;;;;;;;33.35;15.63;;;;;;;-2.19;100.00;101823.56;5071695;28;20039;-70
2022/01/19 08:10:09;;;;;;;41.40;16.02;;;;;;;-2.18;100.00;101821.81;5054025;28;20161;-71
2022/01/19 08:12:38;;;;;;;35.00;15.77;;;;;;;-2.18;100.00;101816.59;5071936;28;20063;-71
2022/01/19 08:15:07;;;;;;;34.83;15.15;;;;;;;-2.28;100.00;101819.91;5071804;28;20047;-71
2022/01/19 08:17:36;;;;;;;39.63;15.88;;;;;;;-2.33;100.00;101818.06;5071994;28;20560;-72
2022/01/19 08:20:08;;;;;;;37.55;15.45;;;;;;;-2.19;100.00;101809.63;5071795;28;20045;-75
2022/01/19 08:22:38;;;;;;;34.65;15.68;;;;;;;-2.13;100.00;101812.31;5071792;28;20094;-75
2022/01/19 08:25:06;;;;;;;39.97;16.27;;;;;;;-2.00;100.00;101805.56;5071533;28;20486;-74
2022/01/19 08:27:35;;;;;;;38.67;15.32;;;;;;;-2.00;100.00;101811.66;5071087;28;20037;-73
2022/01/19 08:30:05;;;;;;;33.85;15.65;;;;;;;-2.06;100.00;101816.78;5070865;28;20481;-73
2022/01/19 08:32:35;;;;;;;35.53;14.75;;;;;;;-1.87;100.00;101817.97;5075563;28;20153;-71
2022/01/19 08:35:04;;;;;;;40.25;15.07;;;;;;;-1.75;100.00;101813.78;5074381;28;20064;-73
2022/01/19 08:37:33;;;;;;;35.35;15.00;;;;;;;-1.68;100.00;101803.44;5074609;28;20056;-74
2022/01/19 08:40:05;;;;;;;34.75;15.75;;;;;;;-1.68;100.00;101806.03;5075906;28;20041;-74
2022/01/19 08:42:36;;;;;;;32.85;13.82;;;;;;;-1.48;100.00;101813.31;5075727;28;20040;-71
2022/01/19 08:45:07;;;;;;;34.08;12.60;;;;;;;-1.47;100.00;101820.31;5075756;28;20041;-73
2022/01/19 08:47:37;;;;;;;29.52;13.30;;;;;;;-1.49;100.00;101808.94;5076064;28;20202;-73
2022/01/19 08:50:09;;;;;;;29.30;13.80;;;;;;;-1.40;100.00;101797.72;5074504;28;20045;-74
2022/01/19 08:52:37;;;;;;;31.85;14.52;;;;;;;-1.42;100.00;101796.81;5074842;28;20045;-74
2022/01/19 08:55:08;;;;;;;31.90;15.30;;;;;;;-1.27;100.00;101791.78;5074522;28;20462;-74
2022/01/19 08:57:36;;;;;;;35.95;15.55;;;;;;;-1.23;100.00;101790.97;5074041;28;20045;-73
2022/01/19 09:00:08;;;;;;;33.47;15.68;;;;;;;-1.36;100.00;101782.91;5073554;28;20067;-75
2022/01/19 09:02:37;;;;;;;32.67;15.05;;;;;;;-1.27;100.00;101781.28;5074296;28;20510;-72
2022/01/19 09:05:07;;;;;;;37.65;15.25;;;;;;;-1.38;100.00;101782.03;5074973;28;20465;-72
2022/01/19 09:07:35;;;;;;;37.53;15.57;;;;;;;-1.40;100.00;101784.63;5074520;28;20040;-71
2022/01/19 09:10:09;;;;;;;31.60;15.05;;;;;;;-1.37;100.00;101789.00;5074172;28;20051;-75
2022/01/19 09:12:37;;;;;;;;;;;;;;;-1.47;100.00;101782.78;5075123;28;20119;-75
2022/01/19 09:15:07;;;;;;;40.92;15.13;;;;;;;-1.43;100.00;101781.09;5074527;28;19927;-71
2022/01/19 09:17:35;;;;;;;36.33;15.38;;;;;;;-1.30;100.00;101783.00;5074277;28;20040;-74
2022/01/19 09:20:06;;;;;;;33.70;16.10;;;;;;;-1.26;100.00;101785.66;5074416;28;20037;-70
2022/01/19 09:22:35;;;;;;;37.78;15.57;;;;;;;-1.27;100.00;101786.53;5074538;28;20051;-75
2022/01/19 09:25:05;;;;;;;35.10;16.27;;;;;;;-1.34;100.00;101779.47;5074312;28;20045;-73
2022/01/19 09:27:38;;;;;;;31.58;15.70;;;;;;;-1.38;100.00;101780.28;5074323;28;20517;-73
2022/01/19 09:30:08;;;;;;;36.20;15.55;;;;;;;-1.22;100.00;101786.59;5073686;28;20036;-74
2022/01/19 09:32:39;;;;;;;34.70;15.40;;;;;;;-1.21;100.00;101780.50;5074420;28;20127;-74
2022/01/19 09:35:09;;;;;;;37.08;15.15;;;;;;;-1.17;100.00;101775.31;5074357;28;20094;-73
2022/01/19 09:37:40;;;;;;;34.22;15.40;;;;;;;-1.10;100.00;101778.00;5073747;28;20061;-73
2022/01/19 09:40:27;;;;;;;32.55;15.30;;;;;;;-0.86;100.00;101767.81;5074139;28;20044;-75
2022/01/19 09:43:07;;;;;;;38.38;15.55;;;;;;;-0.82;100.00;101761.75;5073105;28;20075;-76
2022/01/19 09:45:35;;;;;;;30.58;15.80;;;;;;;-0.91;100.00;101761.66;5073897;28;20074;-72
2022/01/19 09:48:04;;;;;;;33.92;15.43;;;;;;;-0.89;100.00;101754.66;5073344;28;20458;-74
2022/01/19 09:50:33;;;;;;;35.53;16.00;;;;;;;-0.87;100.00;101752.94;5074000;28;20040;-71
2022/01/19 09:53:04;;;;;;;38.63;16.58;;;;;;;-0.74;100.00;101738.25;5073709;28;20396;-72
2022/01/19 09:55:33;;;;;;;32.10;14.98;;;;;;;-0.70;100.00;101738.28;5073862;28;20466;-73
2022/01/19 09:58:02;;;;;;;28.40;15.07;;;;;;;-0.70;100.00;101733.03;5073623;28;20044;-75
2022/01/19 10:00:31;;;;;;;30.08;16.05;;;;;;;-0.69;100.00;101729.53;5073181;28;20075;-73
2022/01/19 10:03:21;;;;;;;36.92;16.63;;;;;;;-0.75;100.00;101724.28;5073420;28;20040;-72
2022/01/19 10:05:57;;;;;;;41.90;16.85;;;;;;;-0.80;100.00;101707.59;5068303;28;20052;-74
2022/01/19 10:08:30;;;;;;;36.30;16.60;;;;;;;-0.76;100.00;101703.31;5073433;28;20036;-73
2022/01/19 10:16:58;;;;;;;37.33;16.83;;;;;;;-0.79;100.00;101698.00;5073593;28;20041;-73
2022/01/19 10:17:11;;;;;;;31.15;14.95;;;;;;;-0.52;100.00;101679.91;5072964;28;20662;-74
2022/01/19 10:19:45;;;;;;;36.88;16.20;;;;;;;-0.38;100.00;101680.91;5072419;28;20044;-72
2022/01/19 10:22:15;;;;;;;37.08;14.75;;;;;;;-0.50;100.00;101666.81;5073155;28;20436;-72
2022/01/19 10:24:50;;;;;;;32.70;15.98;;;;;;;-0.53;100.00;101669.41;5073024;28;20105;-72
2022/01/19 10:27:32;;;;;;;38.17;16.17;;;;;;;-0.46;100.00;101663.34;5071513;28;20056;-71
2022/01/19 10:30:20;;;;;;;38.92;15.77;;;;;;;-0.35;100.00;101657.31;5068189;28;20052;-72
2022/01/19 10:32:52;;;;;;;35.65;15.70;;;;;;;0.03;100.00;101648.81;5075310;28;20044;-78
2022/01/19 10:35:24;;;;;;;36.13;16.05;;;;;;;0.03;100.00;101645.31;5074971;28;20456;-72
2022/01/19 10:38:09;;;;;;;33.95;15.18;;;;;;;-0.05;100.00;101643.50;5073880;28;20497;-70
2022/01/19 10:40:39;;;;;;;34.63;15.65;;;;;;;-0.10;100.00;101633.84;5074733;28;20044;-74
2022/01/19 10:43:32;;;;;;;36.22;16.17;;;;;;;-0.15;100.00;101628.59;5073801;28;20037;-78
2022/01/19 10:46:26;;;;;;;35.25;17.83;;;;;;;0.06;100.00;101617.31;5070819;28;20056;-72
2022/01/19 10:49:03;;;;;;;36.20;17.88;;;;;;;0.11;100.00;101609.50;5052655;28;20504;-76
2022/01/19 10:51:36;;;;;;;40.08;18.42;;;;;;;0.11;100.00;101605.13;5070559;28;20055;-73
2022/01/19 10:54:12;;;;;;;;;;;;;;;0.30;100.00;101592.94;5072950;28;20075;-72
2022/01/19 10:56:42;;;;;;;40.90;19.02;;;;;;;0.45;100.00;101594.72;5072269;28;19950;-72
2022/01/19 10:59:12;;;;;;;35.05;18.60;;;;;;;0.48;100.00;101598.25;5071816;28;20119;-73
2022/01/19 11:01:45;;;;;;;40.80;19.20;;;;;;;0.35;100.00;101600.81;5066173;28;20045;-75
2022/01/19 11:04:25;;;;;;;;;;;;;;;0.39;100.00;101587.72;5072677;28;20044;-74
2022/01/19 11:06:56;;;;;;;34.22;16.13;;;;;;;0.35;100.00;101580.69;5072313;28;20368;-70
2022/01/19 11:09:28;;;;;;;36.53;17.20;;;;;;;0.34;100.00;101586.81;5071732;28;20135;-73
2022/01/19 11:11:59;;;;;;;37.22;17.58;;;;;;;0.37;100.00;101571.06;5072850;28;20040;-72
2022/01/19 11:14:27;;;;;;;39.85;17.05;;;;;;;0.44;100.00;101567.59;5072084;28;20075;-71
2022/01/19 11:16:57;;;;;;;40.25;17.42;;;;;;;0.45;100.00;101561.47;5072312;28;20051;-73
2022/01/19 11:19:26;;;;;;;37.25;17.27;;;;;;;0.51;100.00;101558.88;5071776;28;20044;-71
2022/01/19 11:22:10;;;;;;;38.97;17.50;;;;;;;0.49;100.00;101549.25;5072292;28;20041;-74
2022/01/19 11:24:46;;;;;;;39.00;17.67;;;;;;;0.53;100.00;101541.34;5072480;28;20046;-74
2022/01/19 11:27:16;;;;;;;37.20;17.67;;;;;;;0.60;100.00;101539.63;5071611;28;20068;-72
2022/01/19 11:29:45;;;;;;;40.47;17.73;;;;;;;0.84;100.00;101536.13;5074730;28;20046;-70
2022/01/19 11:32:18;;;;;;;37.28;17.25;;;;;;;0.82;100.00;101536.13;5072511;28;20107;-74
2022/01/19 11:34:50;;;;;;;37.13;16.30;;;;;;;0.72;100.00;101537.00;5072323;28;20185;-74
2022/01/19 11:37:40;;;;;;;34.63;16.63;;;;;;;0.90;100.00;101516.88;5071429;28;20139;-74
2022/01/19 11:40:12;;;;;;;37.55;16.30;;;;;;;0.82;100.00;101512.47;5072100;28;20389;-73
2022/01/19 11:42:41;;;;;;;36.58;17.38;;;;;;;0.89;100.00;101507.25;5072365;28;20521;-72
2022/01/19 11:45:31;;;;;;;36.85;16.33;;;;;;;0.97;100.00;101509.00;5071709;28;20499;-72
2022/01/19 11:48:18;;;;;;;36.63;16.58;;;;;;;0.99;100.00;101495.84;5071566;28;20444;-74
2022/01/19 11:50:48;;;;;;;40.00;16.63;;;;;;;1.01;100.00;101492.34;5053803;28;20052;-74
2022/01/19 11:53:18;;;;;;;36.88;16.80;;;;;;;1.07;100.00;101483.56;5071576;28;20044;-74
2022/01/19 11:56:03;;;;;;;36.35;16.40;;;;;;;1.15;100.00;101484.41;5071915;28;20044;-75
2022/01/19 11:58:32;;;;;;;34.30;16.23;;;;;;;1.20;100.00;101476.53;5070928;28;20493;-74
2022/01/19 12:01:00;;;;;;;39.10;16.95;;;;;;;1.26;100.00;101476.53;5071612;28;20404;-73
2022/01/19 12:03:39;;;;;;;37.25;16.13;;;;;;;1.35;100.00;101455.44;5071855;28;20048;-73
2022/01/19 12:06:31;;;;;;;28.92;14.80;;;;;;;1.48;100.00;101457.16;5073491;28;20464;-74
2022/01/19 12:09:00;;;;;;;35.03;13.97;;;;;;;1.59;100.00;101452.75;5074905;28;20498;-73
2022/01/19 12:11:32;;;;;;;30.08;14.05;;;;;;;1.51;100.00;101454.53;5075269;28;20276;-73
2022/01/19 12:14:10;;;;;;;27.38;13.82;;;;;;;1.53;100.00;101450.13;5075824;28;20412;-72
2022/01/19 12:16:54;;;;;;;28.98;13.52;;;;;;;1.57;100.00;101451.88;5075762;28;20049;-73
2022/01/19 12:19:29;;;;;;;32.60;12.90;;;;;;;1.68;100.00;101444.81;5075017;28;20465;-74
2022/01/19 12:22:08;;;;;;;27.42;12.50;;;;;;;1.77;100.00;101435.13;5075739;28;20036;-72
2022/01/19 12:24:40;;;;;;;28.48;12.88;;;;;;;1.84;100.00;101442.97;5075104;28;20044;-71
2022/01/19 12:27:12;;;;;;;26.67;12.05;;;;;;;1.93;100.00;101440.31;5075344;28;20040;-73
2022/01/19 12:29:51;;;;;;;28.00;11.55;;;;;;;1.97;100.00;101428.00;5074975;28;20040;-74
2022/01/19 12:32:47;;;;;;;26.83;11.35;;;;;;;1.98;100.00;101435.00;5075452;28;20393;-72
2022/01/19 12:35:34;;;;;;;28.23;11.77;;;;;;;2.01;100.00;101427.06;5058409;28;20052;-74
2022/01/19 12:38:09;;;;;;;25.58;11.82;;;;;;;1.97;100.00;101413.06;5074074;28;20095;-75
2022/01/19 12:40:44;;;;;;;21.70;10.93;;;;;;;1.97;100.00;101407.81;5074903;28;20041;-73
2022/01/19 12:43:29;;;;;;;26.02;10.85;;;;;;;2.00;100.00;101405.16;5075004;28;20614;-72